Flight Track Log - Related Links

Times and Time Zones

All times are in EDT time to prevent confusion due to time zone crossing. See the XOJ722 flight status page for this flight to view local times or setup timezone preferences in your user account.

Time Position Orientation Groundspeed Altitude Reporting Facility
EDT Latitude Longitude Course Direction KTS MPH feet Rate Location/Type
Mon 04:04:26 PM 34.1667 -118.4667 107° East 190 219 2,600  Level Southern California TRACON
Mon 04:05:26 PM 34.1500 -118.4000 107° East 241 277 5,900 3,383 Climbing Southern California TRACON
Mon 04:06:00 PM 34.1686 -118.3544 64° Northeast 255 293 7,900 1,938 Climbing Los Angeles Center
Mon 04:07:02 PM 34.2042 -118.2672 64° Northeast 285 328 9,000 532 Climbing Los Angeles Center
Mon 04:08:04 PM 34.2456 -118.2100 49° Northeast 294 338 9,000  Level Los Angeles Center
Mon 04:09:07 PM 34.3250 -118.2456 340° North 254 292 9,000  Level Los Angeles Center
Mon 04:10:21 PM 34.3056 -118.3192 252° West 231 266 9,000 175 Level Los Angeles Center
Mon 04:11:24 PM 34.2519 -118.3208 181° South 236 272 9,400 968 Climbing Los Angeles Center
Mon 04:12:25 PM 34.1664 -118.2686 153° Southeast 294 338 11,000 768 Climbing Los Angeles Center
Mon 04:13:29 PM 34.0828 -118.2217 155° Southeast 326 375 11,000  Level Los Angeles Center
Mon 04:14:42 PM 34.0050 -118.1781 155° Southeast 309 356 11,000  Level Los Angeles Center
Mon 04:15:44 PM 33.9111 -118.1267 156° South 306 352 11,000  Level Los Angeles Center
Mon 04:16:29 PM 33.8500 -118.0833 150° Southeast 288 331 11,000  Level Southern California TRACON
Mon 04:17:30 PM 33.7833 -118.0500 157° South 283 326 11,000 50 Level Southern California TRACON
Mon 04:18:30 PM 33.7167 -117.9667 134° Southeast 303 349 11,100 -50 Climbing Southern California TRACON
Mon 04:19:30 PM 33.7000 -117.8667 101° East 294 338 10,900 -992 Descending Southern California TRACON
Mon 04:20:31 PM 33.6667 -117.8000 121° Southeast 277 319 9,100 -1,835 Descending Southern California TRACON
Mon 04:21:31 PM 33.6000 -117.7500 148° Southeast 275 316 7,200 -1,895 Descending Southern California TRACON
Mon 04:22:25 PM 33.5333 -117.7167 157° South 273 314 5,500 -1,158 Descending Southern California TRACON
Mon 04:23:25 PM 33.4667 -117.6667 148° Southeast 272 313 5,000 -238 Descending Southern California TRACON
Mon 04:24:31 PM 33.4167 -117.6000 132° Southeast 286 329 5,000  Level Southern California TRACON
Mon 04:25:15 PM 33.3700 -117.5567 142° Southeast 282 325 5,000  Level Los Angeles Center
Mon 04:26:17 PM 33.3131 -117.4961 138° Southeast 266 306 5,000  Level Los Angeles Center
Mon 04:27:19 PM 33.2711 -117.4494 137° Southeast 234 269 5,000  Level Los Angeles Center
Mon 04:28:21 PM 33.2308 -117.4028 136° Southeast 213 245 5,000  Level Los Angeles Center
Mon 04:29:23 PM 33.2153 -117.3281 104° East 224 258 5,000  Level Los Angeles Center
Mon 04:30:25 PM 33.1997 -117.2486 103° East 237 273 5,000 -484 Level Los Angeles Center
Mon 04:31:27 PM 33.2072 -117.1594 84° East 243 280 4,000 -677 Descending Los Angeles Center
Mon 04:32:29 PM 33.2239 -117.0847 75° East 238 274 3,600 -194 Descending Los Angeles Center
Mon 04:33:31 PM 33.2164 -117.0147 97° East 230 265 3,600  Level Los Angeles Center
Mon 04:34:32 PM 33.1667 -117.0500 211° Southwest 220 253 3,600 -347 Level Southern California TRACON
Mon 04:35:32 PM 33.1500 -117.1167 253° West 229 264 2,900 -850 Descending Southern California TRACON
Mon 04:36:32 PM 33.1500 -117.1833 270° West 167 192 1,900 -800 Descending Southern California TRACON
Mon 04:37:32 PM 33.1333 -117.2167 239° Southwest 121 139 1,300 -650 Descending Southern California TRACON
Mon 04:38:32 PM 33.1333 -117.2667 270° West 122 140 600 -700 Descending Southern California TRACON

Login

Don't have an account? Register now (free) for customized features, flight alerts, and more!